SVA213 EGNX-EBLG
Flight info
| Callsign | SVA213 |
|---|---|
| Flight time | 0h 55m |
| Altitude | 23000 |
| Route | SAPCO Y53 DTY M605 SILVA/N0484F290 UM605 BENSU Q70 VABIK/N0436F230 Q70 KOK |
| Aircraft | B77L/H-SDE1E2E3FGHIJ2J3J4J5M1RWXY/LB1D1 |
Departure
| Time | 2026-04-21 12:38 |
|---|---|
| Airport | East Midlands Airport (EGNX) |
Arrival
| Time | 2026-04-21 13:33 |
|---|---|
| Airport | Liège Airport (EBLG) |
| Time | Latitude | Longitude | Altitude | Speed | Heading |
|---|---|---|---|---|---|
| 2026-04-21 12:37 | 52.77417 | -1.15735 | 6768 ft | 261 kts | 161° |
| 2026-04-21 12:38 | 52.75553 | -1.15635 | 7624 ft | 279 kts | 187° |
| 2026-04-21 12:38 | 52.73769 | -1.16948 | 8582 ft | 290 kts | 212° |
| 2026-04-21 12:38 | 52.72203 | -1.19030 | 9218 ft | 297 kts | 217° |
| 2026-04-21 12:38 | 52.70591 | -1.21259 | 9816 ft | 304 kts | 216° |
| 2026-04-21 12:39 | 52.68999 | -1.23393 | 10870 ft | 300 kts | 215° |
| 2026-04-21 12:39 | 52.67318 | -1.25596 | 11419 ft | 316 kts | 215° |
| 2026-04-21 12:39 | 52.65552 | -1.27890 | 11934 ft | 332 kts | 216° |
| 2026-04-21 12:39 | 52.63717 | -1.30272 | 12464 ft | 347 kts | 216° |
| 2026-04-21 12:40 | 52.61763 | -1.32805 | 13023 ft | 362 kts | 216° |
| 2026-04-21 12:40 | 52.59766 | -1.35373 | 13678 ft | 373 kts | 213° |
| 2026-04-21 12:40 | 52.57542 | -1.37461 | 14499 ft | 374 kts | 200° |
| 2026-04-21 12:40 | 52.55065 | -1.38675 | 15364 ft | 374 kts | 187° |
| 2026-04-21 12:41 | 52.52457 | -1.38934 | 16201 ft | 375 kts | 174° |
| 2026-04-21 12:41 | 52.49918 | -1.38231 | 16954 ft | 377 kts | 161° |
| 2026-04-21 12:41 | 52.47516 | -1.36604 | 17696 ft | 379 kts | 149° |
| 2026-04-21 12:41 | 52.45304 | -1.34147 | 18431 ft | 383 kts | 139° |
| 2026-04-21 12:42 | 52.43241 | -1.31407 | 19184 ft | 388 kts | 141° |
| 2026-04-21 12:42 | 52.40982 | -1.28892 | 19804 ft | 398 kts | 146° |
| 2026-04-21 12:42 | 52.38548 | -1.26754 | 20397 ft | 408 kts | 153° |
| 2026-04-21 12:42 | 52.35937 | -1.24773 | 20964 ft | 417 kts | 154° |
| 2026-04-21 12:43 | 52.33299 | -1.22792 | 21637 ft | 422 kts | 154° |
| 2026-04-21 12:43 | 52.30633 | -1.20795 | 22187 ft | 430 kts | 155° |
| 2026-04-21 12:43 | 52.27882 | -1.18736 | 22657 ft | 440 kts | 155° |
| 2026-04-21 12:43 | 52.25057 | -1.16626 | 23183 ft | 448 kts | 155° |
| 2026-04-21 12:44 | 52.22243 | -1.14527 | 23772 ft | 454 kts | 156° |
| 2026-04-21 12:44 | 52.19325 | -1.12388 | 24279 ft | 461 kts | 159° |
| 2026-04-21 12:44 | 52.16291 | -1.10834 | 24832 ft | 465 kts | 168° |
| 2026-04-21 12:44 | 52.13098 | -1.09736 | 25464 ft | 468 kts | 171° |
| 2026-04-21 12:45 | 52.09921 | -1.08701 | 26045 ft | 472 kts | 172° |
| 2026-04-21 12:45 | 52.06679 | -1.07649 | 26549 ft | 478 kts | 172° |
| 2026-04-21 12:45 | 52.03402 | -1.06584 | 27096 ft | 483 kts | 173° |
| 2026-04-21 12:45 | 52.00102 | -1.05513 | 27638 ft | 489 kts | 173° |
| 2026-04-21 12:46 | 51.96775 | -1.04434 | 28132 ft | 495 kts | 173° |
| 2026-04-21 12:46 | 51.93410 | -1.03343 | 28709 ft | 499 kts | 173° |
| 2026-04-21 12:46 | 51.89994 | -1.02236 | 29247 ft | 504 kts | 174° |
| 2026-04-21 12:47 | 51.83175 | -1.00026 | 29298 ft | 498 kts | 174° |
| 2026-04-21 12:47 | 51.76366 | -0.97829 | 29298 ft | 499 kts | 174° |
| 2026-04-21 12:48 | 51.69621 | -0.95652 | 29291 ft | 499 kts | 172° |
| 2026-04-21 12:48 | 51.63102 | -0.91678 | 29287 ft | 507 kts | 153° |
| 2026-04-21 12:49 | 51.57518 | -0.84711 | 29288 ft | 514 kts | 134° |
| 2026-04-21 12:49 | 51.55247 | -0.80277 | 29286 ft | 514 kts | 123° |
| 2026-04-21 12:49 | 51.53422 | -0.75381 | 29291 ft | 511 kts | 114° |
| 2026-04-21 12:50 | 51.50736 | -0.64899 | 29293 ft | 509 kts | 108° |
| 2026-04-21 12:50 | 51.48125 | -0.54374 | 29297 ft | 508 kts | 109° |
| 2026-04-21 12:51 | 51.45490 | -0.43987 | 29303 ft | 508 kts | 109° |
| 2026-04-21 12:51 | 51.42804 | -0.33560 | 29293 ft | 507 kts | 110° |
| 2026-04-21 12:52 | 51.40105 | -0.23186 | 29288 ft | 507 kts | 110° |
| 2026-04-21 12:52 | 51.37389 | -0.12822 | 29293 ft | 506 kts | 110° |
| 2026-04-21 12:53 | 51.34680 | -0.02550 | 29292 ft | 506 kts | 109° |
| 2026-04-21 12:53 | 51.32904 | 0.08172 | 29291 ft | 500 kts | 91° |
| 2026-04-21 12:54 | 51.32354 | 0.19090 | 29293 ft | 492 kts | 89° |
| 2026-04-21 12:54 | 51.31849 | 0.29962 | 29291 ft | 495 kts | 89° |
| 2026-04-21 12:55 | 51.31327 | 0.40878 | 29290 ft | 493 kts | 89° |
| 2026-04-21 12:55 | 51.30796 | 0.51729 | 29289 ft | 490 kts | 89° |
| 2026-04-21 12:56 | 51.30270 | 0.62543 | 29282 ft | 492 kts | 88° |
| 2026-04-21 12:56 | 51.29887 | 0.73443 | 29279 ft | 491 kts | 88° |
| 2026-04-21 12:57 | 51.29503 | 0.84243 | 29281 ft | 490 kts | 88° |
| 2026-04-21 12:57 | 51.29104 | 0.95052 | 29280 ft | 490 kts | 88° |
| 2026-04-21 12:58 | 51.28689 | 1.05926 | 29286 ft | 491 kts | 88° |
| 2026-04-21 12:58 | 51.28265 | 1.16699 | 29281 ft | 488 kts | 88° |
| 2026-04-21 12:59 | 51.27834 | 1.27406 | 29286 ft | 483 kts | 88° |
| 2026-04-21 12:59 | 51.27394 | 1.38105 | 29291 ft | 487 kts | 89° |
| 2026-04-21 13:00 | 51.26944 | 1.48740 | 29285 ft | 478 kts | 89° |
| 2026-04-21 13:00 | 51.26490 | 1.59320 | 29289 ft | 480 kts | 89° |
| 2026-04-21 13:01 | 51.26025 | 1.69864 | 29279 ft | 476 kts | 90° |
| 2026-04-21 13:01 | 51.25554 | 1.80352 | 29279 ft | 474 kts | 90° |
| 2026-04-21 13:02 | 51.25076 | 1.90790 | 29282 ft | 474 kts | 90° |
| 2026-04-21 13:02 | 51.24343 | 2.06437 | 29272 ft | 471 kts | 90° |
| 2026-04-21 13:03 | 51.23848 | 2.16799 | 29277 ft | 472 kts | 90° |
| 2026-04-21 13:03 | 51.23342 | 2.27166 | 29276 ft | 471 kts | 90° |
| 2026-04-21 13:04 | 51.22276 | 2.37483 | 29279 ft | 476 kts | 105° |
| 2026-04-21 13:04 | 51.19284 | 2.46836 | 29281 ft | 480 kts | 124° |
| 2026-04-21 13:05 | 51.15007 | 2.54996 | 29274 ft | 485 kts | 129° |
| 2026-04-21 13:05 | 51.10846 | 2.63342 | 29283 ft | 484 kts | 118° |
| 2026-04-21 13:06 | 51.08294 | 2.73067 | 29274 ft | 475 kts | 102° |
| 2026-04-21 13:06 | 51.06727 | 2.83282 | 29282 ft | 474 kts | 101° |
| 2026-04-21 13:07 | 51.05189 | 2.93406 | 29280 ft | 475 kts | 101° |
| 2026-04-21 13:07 | 51.03635 | 3.03558 | 29276 ft | 472 kts | 101° |
| 2026-04-21 13:08 | 51.02080 | 3.13643 | 29277 ft | 474 kts | 101° |
| 2026-04-21 13:08 | 51.00515 | 3.23724 | 29263 ft | 471 kts | 101° |
| 2026-04-21 13:09 | 50.98952 | 3.33733 | 29252 ft | 470 kts | 101° |
| 2026-04-21 13:09 | 50.97371 | 3.43789 | 29262 ft | 470 kts | 101° |
| 2026-04-21 13:10 | 50.95811 | 3.53797 | 29249 ft | 468 kts | 100° |
| 2026-04-21 13:10 | 50.94323 | 3.63859 | 29250 ft | 467 kts | 100° |
| 2026-04-21 13:11 | 50.92846 | 3.73767 | 29247 ft | 466 kts | 101° |
| 2026-04-21 13:11 | 50.91359 | 3.83658 | 29237 ft | 463 kts | 101° |
| 2026-04-21 13:12 | 50.89858 | 3.93563 | 29240 ft | 464 kts | 101° |
| 2026-04-21 13:12 | 50.88354 | 4.03424 | 29235 ft | 462 kts | 101° |
| 2026-04-21 13:13 | 50.87604 | 4.08318 | 29113 ft | 457 kts | 101° |
| 2026-04-21 13:13 | 50.86855 | 4.13192 | 28861 ft | 463 kts | 101° |
| 2026-04-21 13:13 | 50.86095 | 4.18128 | 28527 ft | 458 kts | 101° |
| 2026-04-21 13:13 | 50.85343 | 4.22987 | 28155 ft | 451 kts | 101° |
| 2026-04-21 13:14 | 50.84603 | 4.27754 | 27744 ft | 445 kts | 101° |
| 2026-04-21 13:14 | 50.83886 | 4.32362 | 27220 ft | 432 kts | 101° |
| 2026-04-21 13:14 | 50.83167 | 4.36966 | 26762 ft | 428 kts | 101° |
| 2026-04-21 13:14 | 50.82456 | 4.41509 | 26131 ft | 426 kts | 101° |
| 2026-04-21 13:15 | 50.81753 | 4.45988 | 25458 ft | 417 kts | 101° |
| 2026-04-21 13:15 | 50.81069 | 4.50338 | 24823 ft | 407 kts | 101° |
| 2026-04-21 13:15 | 50.80396 | 4.54602 | 24275 ft | 402 kts | 101° |
| 2026-04-21 13:15 | 50.79715 | 4.58913 | 23575 ft | 403 kts | 101° |
| 2026-04-21 13:16 | 50.79047 | 4.63129 | 22901 ft | 403 kts | 101° |
| 2026-04-21 13:16 | 50.78365 | 4.67421 | 22299 ft | 393 kts | 102° |
| 2026-04-21 13:16 | 50.77715 | 4.71494 | 21766 ft | 382 kts | 102° |
| 2026-04-21 13:16 | 50.77072 | 4.75515 | 21079 ft | 374 kts | 102° |
| 2026-04-21 13:17 | 50.76447 | 4.79424 | 20307 ft | 370 kts | 102° |
| 2026-04-21 13:17 | 50.75817 | 4.83349 | 19508 ft | 366 kts | 102° |
| 2026-04-21 13:17 | 50.75205 | 4.87157 | 18761 ft | 361 kts | 102° |
| 2026-04-21 13:17 | 50.74589 | 4.90978 | 18023 ft | 356 kts | 102° |
| 2026-04-21 13:18 | 50.73982 | 4.94733 | 17316 ft | 351 kts | 102° |
| 2026-04-21 13:18 | 50.73387 | 4.98408 | 16600 ft | 347 kts | 102° |
| 2026-04-21 13:18 | 50.72797 | 5.02050 | 15893 ft | 342 kts | 102° |
| 2026-04-21 13:18 | 50.72213 | 5.05639 | 15196 ft | 337 kts | 102° |
| 2026-04-21 13:19 | 50.71635 | 5.09190 | 14506 ft | 332 kts | 102° |
| 2026-04-21 13:19 | 50.71070 | 5.12650 | 13812 ft | 328 kts | 102° |
| 2026-04-21 13:19 | 50.70501 | 5.16126 | 13111 ft | 324 kts | 102° |
| 2026-04-21 13:19 | 50.69950 | 5.19495 | 12447 ft | 319 kts | 102° |
| 2026-04-21 13:20 | 50.69402 | 5.22829 | 11780 ft | 316 kts | 102° |
| 2026-04-21 13:20 | 50.68853 | 5.26171 | 11084 ft | 312 kts | 102° |
| 2026-04-21 13:20 | 50.68315 | 5.29440 | 10396 ft | 309 kts | 102° |
| 2026-04-21 13:20 | 50.67779 | 5.32688 | 9742 ft | 304 kts | 102° |
| 2026-04-21 13:21 | 50.67262 | 5.35812 | 9404 ft | 290 kts | 102° |
| 2026-04-21 13:21 | 50.66759 | 5.38842 | 9123 ft | 276 kts | 102° |
| 2026-04-21 13:21 | 50.66126 | 5.41604 | 8766 ft | 269 kts | 118° |
| 2026-04-21 13:21 | 50.64890 | 5.43803 | 8313 ft | 269 kts | 141° |
| 2026-04-21 13:22 | 50.63199 | 5.45065 | 7804 ft | 276 kts | 163° |
| 2026-04-21 13:22 | 50.61285 | 5.45148 | 7400 ft | 284 kts | 188° |
| 2026-04-21 13:22 | 50.59448 | 5.43936 | 7000 ft | 290 kts | 214° |
| 2026-04-21 13:22 | 50.58121 | 5.41629 | 6697 ft | 286 kts | 242° |
| 2026-04-21 13:23 | 50.57556 | 5.38742 | 6493 ft | 271 kts | 268° |
| 2026-04-21 13:23 | 50.57753 | 5.35849 | 6105 ft | 264 kts | 292° |
| 2026-04-21 13:23 | 50.58529 | 5.33358 | 5966 ft | 252 kts | 302° |
| 2026-04-21 13:23 | 50.59390 | 5.30972 | 5718 ft | 249 kts | 303° |
| 2026-04-21 13:24 | 50.60244 | 5.28613 | 5445 ft | 247 kts | 303° |
| 2026-04-21 13:24 | 50.60999 | 5.26235 | 5176 ft | 244 kts | 290° |
| 2026-04-21 13:24 | 50.61227 | 5.23610 | 4873 ft | 245 kts | 268° |
| 2026-04-21 13:24 | 50.60909 | 5.20976 | 4453 ft | 242 kts | 255° |
| 2026-04-21 13:25 | 50.60469 | 5.18475 | 4074 ft | 238 kts | 253° |
| 2026-04-21 13:25 | 50.59736 | 5.16178 | 3687 ft | 233 kts | 229° |
| 2026-04-21 13:25 | 50.58651 | 5.14332 | 3368 ft | 232 kts | 224° |
| 2026-04-21 13:25 | 50.57502 | 5.12587 | 3099 ft | 227 kts | 214° |
| 2026-04-21 13:26 | 50.56118 | 5.11588 | 2939 ft | 209 kts | 185° |
| 2026-04-21 13:26 | 50.54735 | 5.11599 | 2922 ft | 194 kts | 161° |
| 2026-04-21 13:26 | 50.53570 | 5.12357 | 2933 ft | 173 kts | 139° |
| 2026-04-21 13:26 | 50.52659 | 5.13528 | 2937 ft | 166 kts | 134° |
| 2026-04-21 13:27 | 50.51802 | 5.14698 | 2932 ft | 162 kts | 130° |
| 2026-04-21 13:27 | 50.50986 | 5.15942 | 2937 ft | 162 kts | 128° |
| 2026-04-21 13:27 | 50.50193 | 5.17184 | 2950 ft | 160 kts | 128° |
| 2026-04-21 13:27 | 50.49488 | 5.18508 | 2940 ft | 156 kts | 111° |
| 2026-04-21 13:28 | 50.49223 | 5.20150 | 2934 ft | 154 kts | 86° |
| 2026-04-21 13:28 | 50.49493 | 5.21720 | 2953 ft | 150 kts | 62° |
| 2026-04-21 13:28 | 50.50124 | 5.23011 | 2941 ft | 148 kts | 48° |
| 2026-04-21 13:28 | 50.50850 | 5.24147 | 2939 ft | 148 kts | 46° |
| 2026-04-21 13:29 | 50.51584 | 5.25281 | 2936 ft | 148 kts | 46° |
| 2026-04-21 13:29 | 50.52319 | 5.26427 | 2944 ft | 149 kts | 46° |
| 2026-04-21 13:29 | 50.53061 | 5.27589 | 2944 ft | 149 kts | 47° |
| 2026-04-21 13:29 | 50.53800 | 5.28749 | 2938 ft | 150 kts | 47° |
| 2026-04-21 13:30 | 50.54526 | 5.29890 | 2941 ft | 150 kts | 47° |
| 2026-04-21 13:30 | 50.55278 | 5.31070 | 2745 ft | 152 kts | 46° |
| 2026-04-21 13:30 | 50.56011 | 5.32223 | 2544 ft | 144 kts | 46° |
| 2026-04-21 13:30 | 50.56702 | 5.33311 | 2382 ft | 137 kts | 46° |
| 2026-04-21 13:31 | 50.57367 | 5.34359 | 2185 ft | 135 kts | 46° |
| 2026-04-21 13:31 | 50.58025 | 5.35395 | 2000 ft | 134 kts | 46° |
| 2026-04-21 13:31 | 50.58678 | 5.36425 | 1823 ft | 134 kts | 45° |
| 2026-04-21 13:31 | 50.59337 | 5.37463 | 1649 ft | 133 kts | 45° |
| 2026-04-21 13:32 | 50.59993 | 5.38497 | 1490 ft | 133 kts | 45° |
| 2026-04-21 13:32 | 50.60651 | 5.39532 | 1310 ft | 136 kts | 45° |
| 2026-04-21 13:32 | 50.61322 | 5.40588 | 1113 ft | 137 kts | 45° |
| 2026-04-21 13:32 | 50.61991 | 5.41645 | 915 ft | 136 kts | 44° |
| 2026-04-21 13:33 | 50.62655 | 5.42694 | 734 ft | 136 kts | 44° |
| 2026-04-21 13:33 | 50.63304 | 5.43716 | 634 ft | 118 kts | 44° |
| 2026-04-21 13:33 | 50.63773 | 5.44467 | 613 ft | 74 kts | 45° |
| 2026-04-21 13:33 | 50.64026 | 5.44866 | 606 ft | 29 kts | 44° |
| 2026-04-21 13:34 | 50.64154 | 5.45067 | 604 ft | 26 kts | 45° |
| 2026-04-21 13:34 | 50.64291 | 5.45284 | 603 ft | 29 kts | 44° |
| 2026-04-21 13:34 | 50.64388 | 5.45502 | 604 ft | 20 kts | 83° |
| 2026-04-21 13:34 | 50.64388 | 5.45647 | 606 ft | 8 kts | 90° |
| 2026-04-21 13:35 | 50.64388 | 5.45727 | 608 ft | 5 kts | 92° |
| 2026-04-21 13:35 | 50.64371 | 5.45751 | 608 ft | 3 kts | 187° |
| 2026-04-21 13:35 | 50.64326 | 5.45704 | 608 ft | 11 kts | 224° |
| 2026-04-21 13:35 | 50.64258 | 5.45601 | 609 ft | 13 kts | 224° |
| 2026-04-21 13:36 | 50.64192 | 5.45500 | 609 ft | 12 kts | 224° |
| 2026-04-21 13:36 | 50.64151 | 5.45439 | 609 ft | 5 kts | 201° |
| 2026-04-21 13:36 | 50.64119 | 5.45460 | 610 ft | 5 kts | 134° |
| 2026-04-21 13:36 | 50.64097 | 5.45495 | 611 ft | 3 kts | 135° |
| 2026-04-21 13:37 | 50.64086 | 5.45512 | 611 ft | 1 kts | 135° |
| 2026-04-21 13:37 | 50.64081 | 5.45519 | 612 ft | 0 kts | 135° |